sensor_id;sensor_type;location;lat;lon;timestamp;pressure;altitude;pressure_sealevel;temperature;humidity
4528;BME280;62320;51.520;6.818;2023-02-17T00:02:58;101555.34;;;10.47;100.00
4528;BME280;62320;51.520;6.818;2023-02-17T00:13:00;101543.28;;;10.49;100.00
4528;BME280;62320;51.520;6.818;2023-02-17T00:23:01;101545.88;;;10.50;100.00
4528;BME280;62320;51.520;6.818;2023-02-17T00:33:03;101532.06;;;10.48;100.00
4528;BME280;62320;51.520;6.818;2023-02-17T00:43:04;101530.38;;;10.49;100.00
4528;BME280;62320;51.520;6.818;2023-02-17T00:53:06;101533.81;;;10.49;100.00
4528;BME280;62320;51.520;6.818;2023-02-17T01:03:07;101514.84;;;10.50;100.00
4528;BME280;62320;51.520;6.818;2023-02-17T01:13:10;101513.13;;;10.49;100.00
4528;BME280;62320;51.520;6.818;2023-02-17T01:23:12;101513.97;;;10.50;100.00
4528;BME280;62320;51.520;6.818;2023-02-17T01:33:14;101504.50;;;10.49;100.00
4528;BME280;62320;51.520;6.818;2023-02-17T01:43:16;101485.53;;;10.48;100.00
4528;BME280;62320;51.520;6.818;2023-02-17T01:53:21;101473.47;;;10.49;100.00
4528;BME280;62320;51.520;6.818;2023-02-17T02:03:25;101457.97;;;10.50;100.00
4528;BME280;62320;51.520;6.818;2023-02-17T02:13:28;101467.44;;;10.50;100.00
4528;BME280;62320;51.520;6.818;2023-02-17T02:33:45;101445.91;;;10.49;100.00
4528;BME280;62320;51.520;6.818;2023-02-17T02:43:51;101427.81;;;10.51;100.00
4528;BME280;62320;51.520;6.818;2023-02-17T03:05:09;101409.72;;;10.52;100.00
4528;BME280;62320;51.520;6.818;2023-02-17T03:15:14;101407.19;;;10.54;100.00
4528;BME280;62320;51.520;6.818;2023-02-17T03:25:16;101396.88;;;10.60;100.00
4528;BME280;62320;51.520;6.818;2023-02-17T03:35:18;101399.50;;;10.64;100.00
4528;BME280;62320;51.520;6.818;2023-02-17T03:45:19;101405.56;;;10.66;100.00
4528;BME280;62320;51.520;6.818;2023-02-17T03:55:21;101415.09;;;10.70;100.00
4528;BME280;62320;51.520;6.818;2023-02-17T04:05:23;101415.06;;;10.69;100.00
4528;BME280;62320;51.520;6.818;2023-02-17T04:15:24;101426.31;;;10.71;100.00
4528;BME280;62320;51.520;6.818;2023-02-17T04:25:26;101405.66;;;10.74;100.00
4528;BME280;62320;51.520;6.818;2023-02-17T04:35:27;101387.53;;;10.74;100.00
4528;BME280;62320;51.520;6.818;2023-02-17T04:45:29;101397.00;;;10.75;100.00
4528;BME280;62320;51.520;6.818;2023-02-17T04:55:31;101407.41;;;10.80;100.00
4528;BME280;62320;51.520;6.818;2023-02-17T05:05:33;101419.47;;;10.77;100.00
4528;BME280;62320;51.520;6.818;2023-02-17T05:15:35;101385.00;;;10.79;100.00
4528;BME280;62320;51.520;6.818;2023-02-17T05:25:37;101393.59;;;10.79;100.00
4528;BME280;62320;51.520;6.818;2023-02-17T05:35:38;101382.38;;;10.77;100.00
4528;BME280;62320;51.520;6.818;2023-02-17T05:45:39;101379.81;;;10.80;100.00
4528;BME280;62320;51.520;6.818;2023-02-17T05:55:41;101367.72;;;10.76;100.00
4528;BME280;62320;51.520;6.818;2023-02-17T06:05:44;101353.13;;;10.81;100.00
4528;BME280;62320;51.520;6.818;2023-02-17T06:15:46;101373.78;;;10.80;100.00
4528;BME280;62320;51.520;6.818;2023-02-17T06:25:48;101380.69;;;10.82;100.00
4528;BME280;62320;51.520;6.818;2023-02-17T06:35:50;101395.34;;;10.82;100.00
4528;BME280;62320;51.520;6.818;2023-02-17T06:45:52;101376.41;;;10.84;100.00
4528;BME280;62320;51.520;6.818;2023-02-17T06:55:53;101385.03;;;10.83;100.00
4528;BME280;62320;51.520;6.818;2023-02-17T07:05:56;101391.09;;;10.85;100.00
4528;BME280;62320;51.520;6.818;2023-02-17T07:15:58;101393.63;;;10.82;100.00
4528;BME280;62320;51.520;6.818;2023-02-17T07:26:02;101393.63;;;10.82;100.00
4528;BME280;62320;51.520;6.818;2023-02-17T07:36:08;101389.38;;;10.86;100.00
4528;BME280;62320;51.520;6.818;2023-02-17T07:46:10;101382.44;;;10.86;100.00
4528;BME280;62320;51.520;6.818;2023-02-17T07:56:14;101373.94;;;10.95;100.00
4528;BME280;62320;51.520;6.818;2023-02-17T08:06:19;101375.66;;;10.97;100.00
4528;BME280;62320;51.520;6.818;2023-02-17T08:16:21;101370.50;;;11.00;100.00
4528;BME280;62320;51.520;6.818;2023-02-17T08:26:23;101362.78;;;11.06;100.00
4528;BME280;62320;51.520;6.818;2023-02-17T08:36:25;101351.63;;;11.12;100.00
4528;BME280;62320;51.520;6.818;2023-02-17T08:46:29;101361.16;;;11.19;100.00
4528;BME280;62320;51.520;6.818;2023-02-17T08:56:31;101380.19;;;11.25;100.00
4528;BME280;62320;51.520;6.818;2023-02-17T09:06:42;101358.66;;;11.31;100.00
4528;BME280;62320;51.520;6.818;2023-02-17T09:16:43;101369.03;;;11.38;100.00
4528;BME280;62320;51.520;6.818;2023-02-17T09:26:45;101377.78;;;11.51;100.00
4528;BME280;62320;51.520;6.818;2023-02-17T09:36:46;101365.75;;;11.61;100.00
4528;BME280;62320;51.520;6.818;2023-02-17T09:47:03;101379.66;;;11.78;100.00
4528;BME280;62320;51.520;6.818;2023-02-17T09:57:07;101409.97;;;11.91;100.00
4528;BME280;62320;51.520;6.818;2023-02-17T10:07:25;101404.81;;;11.94;100.00
4528;BME280;62320;51.520;6.818;2023-02-17T10:28:06;101438.56;;;12.07;100.00
4528;BME280;62320;51.520;6.818;2023-02-17T10:48:37;101402.31;;;12.23;100.00
4528;BME280;62320;51.520;6.818;2023-02-17T10:58:54;101392.00;;;12.39;99.86
4528;BME280;62320;51.520;6.818;2023-02-17T11:09:04;101376.47;;;12.51;99.09
4528;BME280;62320;51.520;6.818;2023-02-17T11:19:18;101378.22;;;12.49;99.73
4528;BME280;62320;51.520;6.818;2023-02-17T11:29:21;101364.41;;;12.76;98.15
4528;BME280;62320;51.520;6.818;2023-02-17T11:39:23;101367.84;;;12.84;97.98
4528;BME280;62320;51.520;6.818;2023-02-17T11:59:40;101342.78;;;12.97;96.15
4528;BME280;62320;51.520;6.818;2023-02-17T12:10:13;101326.31;;;13.04;96.70
4528;BME280;62320;51.520;6.818;2023-02-17T12:31:04;101347.94;;;13.27;95.86
4528;BME280;62320;51.520;6.818;2023-02-17T12:51:35;101354.84;;;13.37;95.29
4528;BME280;62320;51.520;6.818;2023-02-17T13:01:47;101350.53;;;13.39;95.17
4528;BME280;62320;51.520;6.818;2023-02-17T13:11:49;101340.09;;;13.45;95.28
4528;BME280;62320;51.520;6.818;2023-02-17T13:21:53;101351.38;;;13.47;95.46
4528;BME280;62320;51.520;6.818;2023-02-17T13:31:57;101355.66;;;13.57;94.84
4528;BME280;62320;51.520;6.818;2023-02-17T13:42:00;101396.38;;;13.61;95.29
4528;BME280;62320;51.520;6.818;2023-02-17T13:52:18;101406.78;;;13.59;95.60
4528;BME280;62320;51.520;6.818;2023-02-17T14:02:20;101431.00;;;13.58;95.84
4528;BME280;62320;51.520;6.818;2023-02-17T14:12:36;101440.56;;;13.55;95.11
4528;BME280;62320;51.520;6.818;2023-02-17T14:22:37;101440.56;;;13.47;94.92
4528;BME280;62320;51.520;6.818;2023-02-17T14:32:39;101473.50;;;13.42;96.50
4528;BME280;62320;51.520;6.818;2023-02-17T14:42:41;101461.38;;;13.32;97.36
4528;BME280;62320;51.520;6.818;2023-02-17T14:52:47;101479.53;;;13.19;98.19
4528;BME280;62320;51.520;6.818;2023-02-17T15:02:49;101476.94;;;13.05;99.00
4528;BME280;62320;51.520;6.818;2023-02-17T15:12:51;101485.53;;;12.87;100.00
4528;BME280;62320;51.520;6.818;2023-02-17T15:22:56;101471.66;;;12.73;99.81
4528;BME280;62320;51.520;6.818;2023-02-17T15:32:58;101485.44;;;12.63;99.79
4528;BME280;62320;51.520;6.818;2023-02-17T15:42:59;101498.44;;;12.60;99.45
4528;BME280;62320;51.520;6.818;2023-02-17T15:53:03;101506.19;;;12.56;99.80
4528;BME280;62320;51.520;6.818;2023-02-17T16:03:05;101501.84;;;12.53;99.43
4528;BME280;62320;51.520;6.818;2023-02-17T16:13:10;101520.88;;;12.49;98.42
4528;BME280;62320;51.520;6.818;2023-02-17T16:23:13;101537.25;;;12.45;98.20
4528;BME280;62320;51.520;6.818;2023-02-17T16:33:15;101556.28;;;12.47;98.03
4528;BME280;62320;51.520;6.818;2023-02-17T16:43:21;101570.13;;;12.43;98.03
4528;BME280;62320;51.520;6.818;2023-02-17T16:53:23;101591.75;;;12.42;98.00
4528;BME280;62320;51.520;6.818;2023-02-17T17:03:25;101603.81;;;12.39;97.51
4528;BME280;62320;51.520;6.818;2023-02-17T17:13:26;101587.38;;;12.38;97.63
4528;BME280;62320;51.520;6.818;2023-02-17T17:23:28;101621.94;;;12.36;97.76
4528;BME280;62320;51.520;6.818;2023-02-17T17:33:29;101632.31;;;12.33;97.33
4528;BME280;62320;51.520;6.818;2023-02-17T17:43:31;101645.25;;;12.30;97.67
4528;BME280;62320;51.520;6.818;2023-02-17T17:53:32;101646.97;;;12.28;97.93
4528;BME280;62320;51.520;6.818;2023-02-17T18:03:34;101657.31;;;12.23;97.64
4528;BME280;62320;51.520;6.818;2023-02-17T18:13:36;101654.69;;;12.20;98.07
4528;BME280;62320;51.520;6.818;2023-02-17T18:23:38;101689.22;;;12.14;98.37
4528;BME280;62320;51.520;6.818;2023-02-17T18:33:39;101689.19;;;12.11;98.22
4528;BME280;62320;51.520;6.818;2023-02-17T18:43:41;101702.09;;;12.05;98.07
4528;BME280;62320;51.520;6.818;2023-02-17T18:53:42;101708.13;;;12.03;98.16
4528;BME280;62320;51.520;6.818;2023-02-17T19:03:44;101721.09;;;12.01;98.62
4528;BME280;62320;51.520;6.818;2023-02-17T19:13:46;101718.47;;;12.00;98.51
4528;BME280;62320;51.520;6.818;2023-02-17T19:23:48;101728.88;;;12.03;99.19
4528;BME280;62320;51.520;6.818;2023-02-17T19:33:49;101726.28;;;12.04;99.15
4528;BME280;62320;51.520;6.818;2023-02-17T19:43:51;101741.81;;;12.01;98.68
4528;BME280;62320;51.520;6.818;2023-02-17T19:53:52;101714.19;;;12.03;98.77
4528;BME280;62320;51.520;6.818;2023-02-17T20:03:55;101744.41;;;12.04;99.19
4528;BME280;62320;51.520;6.818;2023-02-17T20:13:57;101746.13;;;12.04;99.34
4528;BME280;62320;51.520;6.818;2023-02-17T20:23:59;101756.53;;;12.07;99.48
4528;BME280;62320;51.520;6.818;2023-02-17T20:34:05;101750.47;;;12.06;99.25
4528;BME280;62320;51.520;6.818;2023-02-17T20:44:09;101764.31;;;12.08;99.17
4528;BME280;62320;51.520;6.818;2023-02-17T20:54:12;101772.09;;;12.07;99.50
4528;BME280;62320;51.520;6.818;2023-02-17T21:04:13;101781.59;;;12.06;99.56
4528;BME280;62320;51.520;6.818;2023-02-17T21:14:15;101777.28;;;12.05;99.86
4528;BME280;62320;51.520;6.818;2023-02-17T21:24:16;101783.25;;;12.00;100.00
4528;BME280;62320;51.520;6.818;2023-02-17T21:34:18;101797.03;;;11.96;100.00
4528;BME280;62320;51.520;6.818;2023-02-17T21:44:20;101793.53;;;11.88;100.00
4528;BME280;62320;51.520;6.818;2023-02-17T21:54:40;101802.09;;;11.84;100.00
4528;BME280;62320;51.520;6.818;2023-02-17T22:04:41;101808.03;;;11.77;100.00
4528;BME280;62320;51.520;6.818;2023-02-17T22:14:43;101805.34;;;11.68;100.00
4528;BME280;62320;51.520;6.818;2023-02-17T22:24:44;101808.81;;;11.68;100.00
4528;BME280;62320;51.520;6.818;2023-02-17T22:34:45;101801.00;;;11.65;100.00
4528;BME280;62320;51.520;6.818;2023-02-17T22:44:47;101801.72;;;11.57;100.00
4528;BME280;62320;51.520;6.818;2023-02-17T22:54:49;101800.00;;;11.56;100.00
4528;BME280;62320;51.520;6.818;2023-02-17T23:04:50;101799.06;;;11.52;100.00
4528;BME280;62320;51.520;6.818;2023-02-17T23:14:51;101792.13;;;11.49;100.00
4528;BME280;62320;51.520;6.818;2023-02-17T23:24:53;101785.22;;;11.47;100.00
4528;BME280;62320;51.520;6.818;2023-02-17T23:34:54;101780.00;;;11.45;100.00
4528;BME280;62320;51.520;6.818;2023-02-17T23:44:56;101753.28;;;11.46;100.00
4528;BME280;62320;51.520;6.818;2023-02-17T23:54:58;101748.06;;;11.45;100.00
